createdAt,value
2023-05-22T00:03:37.172Z,42.32
2023-05-22T00:08:39.092Z,41.90
2023-05-22T00:13:40.929Z,41.23
2023-05-22T00:18:42.852Z,41.48
2023-05-22T00:23:45.686Z,42.37
2023-05-22T00:28:47.570Z,42.32
2023-05-22T00:33:49.868Z,42.55
2023-05-22T00:38:51.876Z,42.00
2023-05-22T00:43:53.698Z,41.78
2023-05-22T00:48:55.659Z,42.30
2023-05-22T00:53:57.941Z,42.52
2023-05-22T00:58:59.890Z,42.02
2023-05-22T01:04:02.258Z,41.80
2023-05-22T01:09:04.954Z,41.84
2023-05-22T01:14:18.392Z,40.70
2023-05-22T01:19:43.757Z,41.14
2023-05-22T01:24:48.734Z,40.61
2023-05-22T01:29:59.706Z,40.48
2023-05-22T01:35:03.387Z,40.65
2023-05-22T01:40:07.611Z,40.40
2023-05-22T01:45:11.543Z,41.12
2023-05-22T01:50:14.618Z,41.75
2023-05-22T01:55:27.459Z,41.83
2023-05-22T02:00:31.371Z,41.68
2023-05-22T02:05:37.652Z,41.40
2023-05-22T02:10:41.257Z,42.43
2023-05-22T02:15:46.596Z,41.98
2023-05-22T02:20:48.621Z,41.23
2023-05-22T02:25:50.796Z,41.42
2023-05-22T02:30:52.986Z,41.77
2023-05-22T02:35:54.810Z,41.41
2023-05-22T02:40:56.625Z,41.13
2023-05-22T02:45:58.405Z,41.27
2023-05-22T02:51:00.413Z,42.12
2023-05-22T02:56:03.049Z,42.59
2023-05-22T03:01:09.050Z,41.53
2023-05-22T03:06:11.060Z,42.64
2023-05-22T03:11:12.888Z,42.16
2023-05-22T03:16:15.659Z,42.31
2023-05-22T03:21:20.669Z,42.48
2023-05-22T03:26:22.712Z,42.02
2023-05-22T03:31:29.563Z,41.33
2023-05-22T03:36:38.700Z,41.67
2023-05-22T03:41:41.219Z,43.92
2023-05-22T03:46:43.530Z,43.74
2023-05-22T03:51:45.474Z,43.52
2023-05-22T03:56:47.324Z,42.84
2023-05-22T04:01:49.146Z,42.58
2023-05-22T04:06:53.457Z,42.36
2023-05-22T04:11:56.129Z,42.54
2023-05-22T04:16:58.080Z,42.81
2023-05-22T04:21:59.946Z,42.82
2023-05-22T04:27:02.357Z,42.43
2023-05-22T04:32:06.312Z,43.28
2023-05-22T04:37:10.196Z,42.94
2023-05-22T04:42:16.027Z,42.75
2023-05-22T04:47:18.660Z,43.21
2023-05-22T04:52:21.327Z,43.79
2023-05-22T04:57:25.560Z,42.94
2023-05-22T05:02:27.671Z,42.56
2023-05-22T05:07:29.772Z,43.11
2023-05-22T05:12:32.347Z,42.82
2023-05-22T05:17:34.303Z,42.93
2023-05-22T05:22:37.461Z,43.16
2023-05-22T05:27:40.846Z,43.80
2023-05-22T05:32:44.280Z,43.31
2023-05-22T05:37:58.237Z,43.66
2023-05-22T05:43:02.240Z,43.60
2023-05-22T05:48:04.973Z,43.23
2023-05-22T05:53:08.686Z,43.22
2023-05-22T05:58:10.963Z,42.95
2023-05-22T06:03:26.355Z,42.85
2023-05-22T06:08:36.990Z,42.74
2023-05-22T06:13:39.032Z,43.56
2023-05-22T06:18:41.000Z,43.47
2023-05-22T06:23:42.947Z,43.23
2023-05-22T06:28:45.955Z,43.00
2023-05-22T06:33:48.357Z,42.89
2023-05-22T06:38:50.366Z,44.66
2023-05-22T06:44:12.935Z,45.45
2023-05-22T06:49:15.716Z,46.23
2023-05-22T06:54:23.542Z,46.67
2023-05-22T06:59:31.115Z,45.43
2023-05-22T07:04:41.928Z,44.00
2023-05-22T07:09:48.301Z,44.97
2023-05-22T07:14:50.921Z,43.43
2023-05-22T07:19:52.976Z,43.66
2023-05-22T07:24:54.982Z,42.58
2023-05-22T07:29:58.562Z,42.20
2023-05-22T07:35:00.734Z,43.91
2023-05-22T07:40:05.687Z,49.24
2023-05-22T07:45:08.585Z,48.15
2023-05-22T07:50:10.619Z,49.03
2023-05-22T07:55:16.210Z,49.54
2023-05-22T08:00:19.368Z,52.38
2023-05-22T08:05:21.433Z,55.41
2023-05-22T08:10:23.364Z,56.52
2023-05-22T08:15:25.141Z,55.43
2023-05-22T08:20:27.267Z,57.09
2023-05-22T08:25:29.185Z,55.54
2023-05-22T08:30:31.152Z,49.00
2023-05-22T08:35:33.038Z,44.62
2023-05-22T08:40:41.937Z,44.09
2023-05-22T08:45:45.848Z,45.08
2023-05-22T08:50:57.572Z,44.78
2023-05-22T08:55:59.872Z,47.60
2023-05-22T09:01:02.898Z,47.41
2023-05-22T09:06:10.434Z,45.59
2023-05-22T09:11:13.273Z,48.48
2023-05-22T09:16:15.796Z,49.35
2023-05-22T09:21:29.410Z,48.32
2023-05-22T09:26:32.990Z,44.55
2023-05-22T09:31:42.776Z,42.51
2023-05-22T09:36:45.382Z,42.03
2023-05-22T09:41:47.304Z,47.50
2023-05-22T09:46:49.225Z,49.09
2023-05-22T09:51:53.992Z,48.63
2023-05-22T09:56:59.468Z,50.55
2023-05-22T10:02:04.216Z,51.80
2023-05-22T10:07:06.654Z,46.48
2023-05-22T10:12:10.824Z,48.14
2023-05-22T10:17:13.115Z,49.57
2023-05-22T10:22:20.819Z,51.71
2023-05-22T10:27:22.598Z,47.33
2023-05-22T10:32:50.359Z,45.07
2023-05-22T10:38:07.488Z,49.14
2023-05-22T10:43:09.518Z,47.79
2023-05-22T10:48:12.522Z,45.08
2023-05-22T10:53:25.872Z,48.77
2023-05-22T10:58:30.420Z,46.85
2023-05-22T11:03:57.285Z,46.23
2023-05-22T11:08:59.334Z,44.76
2023-05-22T11:14:04.523Z,45.91
2023-05-22T11:19:22.048Z,44.71
2023-05-22T11:24:24.895Z,44.64
2023-05-22T11:29:27.177Z,43.51
2023-05-22T11:34:29.421Z,41.98
2023-05-22T11:39:32.693Z,40.41
2023-05-22T11:44:34.507Z,39.64
2023-05-22T11:49:36.396Z,38.18
2023-05-22T11:54:39.055Z,37.24
2023-05-22T11:59:46.309Z,34.07
2023-05-22T12:04:48.116Z,33.61
2023-05-22T12:09:50.294Z,31.77
2023-05-22T12:14:52.095Z,31.90
2023-05-22T12:19:53.838Z,32.65
2023-05-22T12:24:55.693Z,33.50
2023-05-22T12:29:58.117Z,34.34
2023-05-22T12:35:00.023Z,35.71
2023-05-22T12:40:04.814Z,36.56
2023-05-22T12:45:07.174Z,37.00
2023-05-22T12:50:09.248Z,37.18
2023-05-22T12:55:11.650Z,36.85
2023-05-22T13:00:14.059Z,37.04
2023-05-22T13:05:15.863Z,38.29
2023-05-22T13:10:18.969Z,38.11
2023-05-22T13:15:20.763Z,39.80
2023-05-22T13:20:23.683Z,38.38
2023-05-22T13:25:25.578Z,36.23
2023-05-22T13:30:28.407Z,33.98
2023-05-22T13:35:30.322Z,34.35
2023-05-22T13:40:32.228Z,32.90
2023-05-22T13:45:34.019Z,33.38
2023-05-22T13:50:35.780Z,32.72
2023-05-22T13:55:37.914Z,33.80
2023-05-22T14:00:39.866Z,35.56
2023-05-22T14:05:41.812Z,34.04
2023-05-22T14:10:43.838Z,33.69
2023-05-22T14:15:49.113Z,32.29
2023-05-22T14:20:50.972Z,31.14
2023-05-22T14:25:53.112Z,33.42
2023-05-22T14:30:56.294Z,31.30
2023-05-22T14:35:58.159Z,31.11
2023-05-22T14:41:01.052Z,27.86
2023-05-22T14:46:03.228Z,27.98
2023-05-22T14:51:05.063Z,28.68
2023-05-22T14:56:06.898Z,29.31
2023-05-22T15:01:08.787Z,26.32
2023-05-22T15:06:10.663Z,26.28
2023-05-22T15:11:12.477Z,26.18
2023-05-22T15:16:14.331Z,29.42
2023-05-22T15:21:16.821Z,32.24
2023-05-22T15:26:19.048Z,33.13
2023-05-22T15:31:20.972Z,30.67
2023-05-22T15:36:23.638Z,30.87
2023-05-22T15:41:26.058Z,37.68
2023-05-22T15:46:27.910Z,37.59
2023-05-22T15:51:30.082Z,35.57
2023-05-22T15:56:31.909Z,32.82
2023-05-22T16:01:34.798Z,31.22
2023-05-22T16:06:36.717Z,29.46
2023-05-22T16:11:38.704Z,30.33
2023-05-22T16:16:40.974Z,29.03
2023-05-22T16:21:42.997Z,28.57
2023-05-22T16:26:44.946Z,29.07
2023-05-22T16:31:47.298Z,31.50
2023-05-22T16:36:49.274Z,31.40
2023-05-22T16:41:53.579Z,29.51
2023-05-22T16:46:55.837Z,28.99
2023-05-22T16:51:57.755Z,29.44
2023-05-22T16:56:59.713Z,29.74
2023-05-22T17:02:01.587Z,31.10
2023-05-22T17:07:03.696Z,29.48
2023-05-22T17:12:06.094Z,28.00
2023-05-22T17:17:08.016Z,29.06
2023-05-22T17:22:09.856Z,30.22
2023-05-22T17:27:12.790Z,30.60
2023-05-22T17:32:19.899Z,30.31
2023-05-22T17:37:21.867Z,31.15
2023-05-22T17:42:23.891Z,30.61
2023-05-22T17:47:25.809Z,31.84
2023-05-22T17:52:27.647Z,33.31
2023-05-22T17:57:29.565Z,32.98
2023-05-22T18:02:31.504Z,35.20
2023-05-22T18:07:33.311Z,35.24
2023-05-22T18:12:37.994Z,35.47
2023-05-22T18:17:41.334Z,36.17
2023-05-22T18:22:43.365Z,35.49
2023-05-22T18:27:45.251Z,35.82
2023-05-22T18:32:47.175Z,35.94
2023-05-22T18:37:49.068Z,35.81
2023-05-22T18:42:51.042Z,34.79
2023-05-22T18:47:53.270Z,33.59
2023-05-22T18:52:55.713Z,33.66
2023-05-22T18:57:57.580Z,34.83
2023-05-22T19:02:59.509Z,35.80
2023-05-22T19:08:01.476Z,35.38
2023-05-22T19:13:03.915Z,35.59
2023-05-22T19:18:05.939Z,35.70
2023-05-22T19:23:09.630Z,35.93
2023-05-22T19:28:11.544Z,36.66
2023-05-22T19:33:14.530Z,37.16
2023-05-22T19:38:16.587Z,38.93
2023-05-22T19:43:18.538Z,38.41
2023-05-22T19:48:20.487Z,38.05
2023-05-22T19:53:22.399Z,37.23
2023-05-22T19:58:24.273Z,37.75
2023-05-22T20:03:26.524Z,39.03
2023-05-22T20:08:28.561Z,40.12
2023-05-22T20:13:30.400Z,39.35
2023-05-22T20:18:32.212Z,39.22
2023-05-22T20:23:34.043Z,40.07
2023-05-22T20:28:35.924Z,39.68
2023-05-22T20:33:37.769Z,38.20
2023-05-22T20:38:42.537Z,38.70
2023-05-22T20:43:44.467Z,39.74
2023-05-22T20:48:48.206Z,39.68
2023-05-22T20:53:52.534Z,39.92
2023-05-22T20:58:54.877Z,39.60
2023-05-22T21:03:56.818Z,40.82
2023-05-22T21:09:01.543Z,40.29
2023-05-22T21:14:03.561Z,39.35
2023-05-22T21:19:06.195Z,39.48
2023-05-22T21:24:09.806Z,40.73
2023-05-22T21:29:11.649Z,40.86
2023-05-22T21:34:13.500Z,41.00
2023-05-22T21:39:15.467Z,39.94
2023-05-22T21:44:18.426Z,39.93
2023-05-22T21:49:20.274Z,40.57
2023-05-22T21:54:22.070Z,40.39
2023-05-22T21:59:23.965Z,39.44
2023-05-22T22:04:25.814Z,39.70
2023-05-22T22:09:27.635Z,40.15
2023-05-22T22:14:29.531Z,39.20
2023-05-22T22:19:31.502Z,39.53
2023-05-22T22:24:33.516Z,40.44
2023-05-22T22:29:35.543Z,40.10
2023-05-22T22:34:37.658Z,40.48
2023-05-22T22:39:39.598Z,40.18
2023-05-22T22:44:41.730Z,39.97
2023-05-22T22:49:43.549Z,40.11
2023-05-22T22:54:45.439Z,40.32
2023-05-22T22:59:47.429Z,40.04
2023-05-22T23:04:49.342Z,39.18
2023-05-22T23:09:51.168Z,39.17
2023-05-22T23:14:53.567Z,41.27
2023-05-22T23:19:55.607Z,42.58
2023-05-22T23:24:57.401Z,42.78
2023-05-22T23:29:59.198Z,41.39
2023-05-22T23:35:01.004Z,40.44
2023-05-22T23:40:02.870Z,40.97
2023-05-22T23:45:05.202Z,41.75
2023-05-22T23:50:07.994Z,40.79
2023-05-22T23:55:09.975Z,41.08
